Time;durP1;ratioP1;P1;durP2;ratioP2;P2;SDS_P1;SDS_P2;PMS_P1;PMS_P2;Temp;Humidity;BMP_temperature;BMP_pressure;BME280_temperature;BME280_humidity;BME280_pressure;Samples;Min_cycle;Max_cycle;Signal;HPM_P1;HPM_P2
2023/04/01 00:01:16;;;;;;;12.70;3.35;;;;;;;11.65;62.06;92295.59;5092730;28;20048;-72
2023/04/01 00:03:43;;;;;;;9.80;3.50;;;;;;;11.69;62.30;92295.88;5077999;28;20689;-72
2023/04/01 00:06:13;;;;;;;9.75;3.42;;;;;;;11.79;62.60;92301.16;5072448;28;20048;-72
2023/04/01 00:08:40;;;;;;;13.02;4.10;;;;;;;11.68;62.29;92281.47;5072131;28;20071;-72
2023/04/01 00:11:06;;;;;;;13.98;4.07;;;;;;;11.83;63.78;92293.72;5072642;28;20143;-72
2023/04/01 00:13:33;;;;;;;14.45;4.40;;;;;;;11.80;63.17;92307.84;5072738;28;20044;-73
2023/04/01 00:16:01;;;;;;;10.55;4.68;;;;;;;11.82;63.37;92303.25;5072227;28;20554;-73
2023/04/01 00:18:29;;;;;;;11.68;4.18;;;;;;;11.82;63.46;92308.41;5072596;28;20822;-72
2023/04/01 00:20:56;;;;;;;14.15;3.50;;;;;;;11.84;63.60;92297.84;5072521;28;20107;-73
2023/04/01 00:23:23;;;;;;;8.35;2.88;;;;;;;11.84;63.42;92303.00;5072052;28;20559;-73
2023/04/01 00:25:50;;;;;;;11.40;3.35;;;;;;;11.85;64.15;92302.00;5072063;28;20106;-73
2023/04/01 00:28:18;;;;;;;10.82;3.83;;;;;;;11.74;62.77;92290.81;5072293;28;20045;-72
2023/04/01 00:30:46;;;;;;;12.10;3.00;;;;;;;11.72;62.77;92295.41;5091774;28;20558;-73
2023/04/01 00:33:12;;;;;;;6.38;2.38;;;;;;;11.62;62.39;92270.34;5092500;28;20441;-73
2023/04/01 00:35:41;;;;;;;8.93;2.42;;;;;;;11.63;62.37;92270.09;5092122;28;20094;-73
2023/04/01 00:38:08;;;;;;;6.40;2.40;;;;;;;11.57;62.29;92267.72;5092389;28;20059;-73
2023/04/01 00:40:37;;;;;;;10.43;2.30;;;;;;;11.53;62.44;92269.97;5092524;28;20106;-72
2023/04/01 00:43:11;;;;;;;7.28;1.90;;;;;;;11.48;62.67;92265.53;5091864;28;20047;-72
2023/04/01 00:45:40;;;;;;;8.00;2.00;;;;;;;11.46;62.34;92265.03;5091946;28;20500;-72
2023/04/01 00:48:11;;;;;;;5.32;1.75;;;;;;;11.44;62.61;92263.69;5092231;28;20040;-72
2023/04/01 00:50:42;;;;;;;5.65;2.22;;;;;;;11.37;62.86;92256.16;5092181;28;20048;-72
2023/04/01 00:53:09;;;;;;;5.13;1.50;;;;;;;11.32;62.95;92256.88;5092124;28;20154;-73
2023/04/01 00:55:40;;;;;;;4.20;1.60;;;;;;;11.22;62.88;92231.78;5091747;28;20075;-72
2023/04/01 00:58:09;;;;;;;6.43;1.80;;;;;;;11.19;63.42;92239.19;5092001;28;20052;-72
2023/04/01 01:00:37;;;;;;;8.23;2.47;;;;;;;11.22;63.81;92226.66;5091992;28;20125;-72
2023/04/01 01:03:04;;;;;;;9.27;2.20;;;;;;;11.26;63.80;92232.13;5091819;28;20098;-72
2023/04/01 01:05:43;;;;;;;9.20;2.45;;;;;;;11.23;63.33;92220.50;5091541;28;20527;-72
2023/04/01 01:08:18;;;;;;;7.70;2.17;;;;;;;11.12;63.08;92207.75;5091589;28;20051;-72
2023/04/01 01:10:50;;;;;;;6.07;2.03;;;;;;;11.19;63.71;92200.66;5090330;28;20093;-72
2023/04/01 01:13:23;;;;;;;6.18;2.20;;;;;;;11.17;63.25;92200.91;5091693;28;20822;-73
2023/04/01 01:15:55;;;;;;;5.75;2.22;;;;;;;11.09;63.89;92194.38;5091267;28;20047;-72
2023/04/01 01:18:34;;;;;;;10.98;2.42;;;;;;;11.11;64.34;92195.94;5090869;28;20067;-72
2023/04/01 01:21:24;;;;;;;8.07;2.42;;;;;;;11.10;63.71;92195.13;5091945;28;20135;-72
2023/04/01 01:24:27;;;;;;;7.05;1.88;;;;;;;11.06;64.01;92194.84;5091407;28;20051;-72
2023/04/01 01:27:03;;;;;;;6.88;2.05;;;;;;;11.07;63.71;92200.78;5089346;28;20496;-72
2023/04/01 01:30:15;;;;;;;5.78;1.83;;;;;;;11.12;63.40;92200.06;5091093;28;20044;-73
2023/04/01 01:33:00;;;;;;;10.38;2.30;;;;;;;11.03;63.79;92200.47;5091218;28;20076;-73
2023/04/01 01:35:33;;;;;;;9.67;1.97;;;;;;;11.03;63.98;92200.47;5091449;28;20101;-72
2023/04/01 01:38:04;;;;;;;5.82;2.25;;;;;;;11.05;64.15;92193.28;5090795;28;20435;-73
2023/04/01 01:40:34;;;;;;;7.10;2.53;;;;;;;11.04;64.27;92196.09;5091373;28;20446;-73
2023/04/01 01:43:05;;;;;;;5.63;1.70;;;;;;;11.02;64.28;92185.28;5090925;28;20056;-72
2023/04/01 01:45:34;;;;;;;7.65;2.35;;;;;;;10.89;63.72;92161.50;5091317;28;20419;-72
2023/04/01 01:48:03;;;;;;;6.90;1.83;;;;;;;11.04;63.63;92178.09;5077904;28;21021;-72
2023/04/01 01:50:32;;;;;;;5.65;1.73;;;;;;;11.08;63.08;92177.38;5091040;28;20119;-73
2023/04/01 01:53:04;;;;;;;6.93;2.13;;;;;;;11.12;62.91;92171.78;5090719;28;20073;-72
2023/04/01 01:55:33;;;;;;;5.90;1.98;;;;;;;11.15;62.89;92176.47;5090962;28;20462;-72
2023/04/01 01:58:03;;;;;;;6.13;2.33;;;;;;;11.19;62.19;92169.81;5090496;28;20500;-72
2023/04/01 02:00:30;;;;;;;3.88;1.95;;;;;;;11.22;62.11;92169.34;5090849;28;20040;-72
2023/04/01 02:02:59;;;;;;;5.45;2.08;;;;;;;11.22;61.23;92162.38;5090690;28;20460;-72
2023/04/01 02:05:30;;;;;;;5.47;1.90;;;;;;;11.25;61.07;92173.97;5090726;28;20047;-72
2023/04/01 02:08:03;;;;;;;4.55;1.70;;;;;;;11.28;60.81;92175.28;5090686;28;20052;-72
2023/04/01 02:10:36;;;;;;;6.18;1.85;;;;;;;11.27;60.91;92166.03;5090704;28;20455;-72
2023/04/01 02:13:10;;;;;;;3.95;1.85;;;;;;;11.28;60.72;92168.38;5090603;28;20413;-72
2023/04/01 02:15:42;;;;;;;6.47;1.70;;;;;;;11.33;61.02;92172.78;5090336;28;20174;-73
2023/04/01 02:18:11;;;;;;;4.57;1.70;;;;;;;11.32;60.57;92166.88;5090503;28;20044;-72
2023/04/01 02:20:41;;;;;;;8.80;2.03;;;;;;;11.34;60.92;92164.09;5089925;28;20039;-72
2023/04/01 02:23:11;;;;;;;5.93;2.08;;;;;;;11.29;60.52;92153.75;5090184;28;20105;-72
2023/04/01 02:25:39;;;;;;;8.80;2.08;;;;;;;11.41;60.92;92161.31;5089971;28;20059;-72
2023/04/01 02:28:08;;;;;;;5.00;2.42;;;;;;;11.43;60.67;92159.28;5090388;28;20128;-72
2023/04/01 02:30:37;;;;;;;10.45;2.17;;;;;;;11.37;61.11;92173.88;5089805;28;20093;-72
2023/04/01 02:33:06;;;;;;;6.80;2.58;;;;;;;11.42;61.70;92160.28;5090116;28;20040;-72
2023/04/01 02:35:34;;;;;;;10.02;2.60;;;;;;;11.40;62.22;92170.84;5090124;28;20040;-72
2023/04/01 02:38:01;;;;;;;7.65;2.50;;;;;;;11.42;62.03;92168.78;5090100;28;20700;-73
2023/04/01 02:40:29;;;;;;;8.13;2.38;;;;;;;11.38;62.23;92172.09;5090168;28;20106;-72
2023/04/01 02:42:56;;;;;;;7.30;2.58;;;;;;;11.33;62.59;92173.59;5089785;28;20048;-73
2023/04/01 02:45:23;;;;;;;8.80;3.03;;;;;;;11.25;62.66;92158.56;5089921;28;20105;-72
2023/04/01 02:47:50;;;;;;;8.35;2.88;;;;;;;11.36;62.59;92180.03;5090192;28;20120;-72
2023/04/01 02:50:17;;;;;;;9.88;2.58;;;;;;;11.25;63.16;92161.13;5089836;28;20047;-72
2023/04/01 02:52:43;;;;;;;7.88;2.15;;;;;;;11.30;62.87;92175.84;5089732;28;20048;-72
2023/04/01 02:55:10;;;;;;;7.47;2.63;;;;;;;11.34;62.99;92195.69;5089843;28;20105;-72
2023/04/01 02:57:38;;;;;;;7.18;2.03;;;;;;;11.35;63.93;92197.25;5089499;28;20554;-72
2023/04/01 03:00:10;;;;;;;9.63;2.65;;;;;;;11.39;63.89;92205.25;5089502;28;20488;-72
2023/04/01 03:02:38;;;;;;;12.57;2.40;;;;;;;11.36;64.46;92213.47;5089935;28;20048;-72
2023/04/01 03:05:06;;;;;;;8.18;2.10;;;;;;;11.29;65.34;92205.91;5089246;28;20048;-72
2023/04/01 03:07:33;;;;;;;11.15;2.80;;;;;;;11.31;67.23;92215.97;5089753;28;20048;-72
2023/04/01 03:10:00;;;;;;;10.13;2.80;;;;;;;11.35;69.24;92204.19;5089036;28;20488;-72
2023/04/01 03:12:27;;;;;;;11.10;3.30;;;;;;;11.35;69.19;92202.38;5089688;28;20089;-72
2023/04/01 03:14:55;;;;;;;7.65;2.67;;;;;;;11.32;69.27;92200.31;5089272;28;20043;-73
2023/04/01 03:17:21;;;;;;;4.40;2.10;;;;;;;11.30;68.55;92194.59;5089449;28;20093;-72
2023/04/01 03:19:48;;;;;;;9.38;2.40;;;;;;;11.23;69.29;92187.09;5083803;28;20045;-72
2023/04/01 03:22:15;;;;;;;7.82;1.80;;;;;;;11.17;68.76;92170.06;5069487;28;20049;-74
2023/04/01 03:24:42;;;;;;;8.43;2.20;;;;;;;11.20;68.74;92169.56;5068927;28;20150;-72
2023/04/01 03:27:08;;;;;;;8.73;2.40;;;;;;;11.21;69.25;92157.50;5068975;28;20052;-72
2023/04/01 03:29:36;;;;;;;7.78;1.98;;;;;;;11.18;69.73;92139.97;5079993;28;20052;-72
2023/04/01 03:32:04;;;;;;;7.57;2.10;;;;;;;10.90;71.36;92101.38;5089213;28;20052;-73
2023/04/01 03:34:31;;;;;;;7.60;1.75;;;;;;;10.98;71.70;92120.75;5089042;28;20550;-72
2023/04/01 03:36:58;;;;;;;6.25;2.17;;;;;;;10.95;70.87;92106.59;5089055;28;20857;-72
2023/04/01 03:39:25;;;;;;;9.18;2.40;;;;;;;10.95;70.63;92103.22;5088996;28;20052;-72
2023/04/01 03:41:51;;;;;;;9.20;2.30;;;;;;;10.90;71.02;92092.88;5089404;28;20047;-72
2023/04/01 03:44:18;;;;;;;8.40;2.40;;;;;;;10.80;71.61;92073.00;5089221;28;20048;-73
2023/04/01 03:46:45;;;;;;;7.25;2.53;;;;;;;10.87;71.18;92081.28;5081220;28;20450;-73
2023/04/01 03:49:13;;;;;;;8.90;2.60;;;;;;;10.76;71.13;92077.06;5089212;28;20044;-73
2023/04/01 03:51:40;;;;;;;6.00;1.95;;;;;;;10.80;70.83;92080.69;5089150;28;20106;-73
2023/04/01 03:54:07;;;;;;;8.20;1.90;;;;;;;10.62;70.61;92035.53;5089175;28;20044;-73
2023/04/01 03:56:34;;;;;;;6.65;1.65;;;;;;;10.89;70.74;92071.56;5088814;28;20097;-73
2023/04/01 03:59:03;;;;;;;7.93;2.70;;;;;;;10.92;72.09;92078.03;5089034;28;20051;-73
2023/04/01 04:01:30;;;;;;;9.20;2.22;;;;;;;10.83;72.70;92064.78;5089057;28;20052;-73
2023/04/01 04:03:58;;;;;;;10.40;3.47;;;;;;;10.86;73.20;92069.47;5088632;28;20048;-72
2023/04/01 04:06:26;;;;;;;9.13;2.88;;;;;;;10.85;74.45;92062.78;5088869;28;20040;-72
2023/04/01 04:08:53;;;;;;;6.90;2.38;;;;;;;10.81;74.28;92059.91;5089023;28;20052;-72
2023/04/01 04:11:21;;;;;;;5.45;2.72;;;;;;;10.76;74.27;92062.44;5089058;28;20068;-72
2023/04/01 04:13:48;;;;;;;7.00;2.53;;;;;;;10.58;73.48;92032.66;5088855;28;20046;-72
2023/04/01 04:16:16;;;;;;;5.40;2.03;;;;;;;10.65;73.20;92045.34;5088719;28;20139;-72
2023/04/01 04:18:43;;;;;;;8.80;2.53;;;;;;;10.57;72.85;92023.41;5089017;28;20110;-72
2023/04/01 04:21:13;;;;;;;5.95;2.58;;;;;;;10.68;71.86;92037.94;5088888;28;20393;-73
2023/04/01 04:23:41;;;;;;;6.55;2.45;;;;;;;10.71;71.32;92041.03;5088701;28;20044;-73
2023/04/01 04:26:10;;;;;;;6.00;2.63;;;;;;;10.71;71.08;92046.16;5088489;28;20040;-73
2023/04/01 04:28:37;;;;;;;9.07;2.95;;;;;;;10.65;71.63;92038.41;5088710;28;20052;-73
2023/04/01 04:31:06;;;;;;;9.93;2.90;;;;;;;10.62;71.54;92032.97;5088839;28;20044;-73
2023/04/01 04:33:32;;;;;;;13.43;3.40;;;;;;;10.50;71.12;92023.59;5088493;28;20482;-73
2023/04/01 04:36:00;;;;;;;8.70;3.53;;;;;;;10.55;70.77;92022.88;5068113;28;20049;-73
2023/04/01 04:38:27;;;;;;;6.80;3.10;;;;;;;10.59;70.42;92020.63;5068325;28;20049;-73
2023/04/01 04:40:55;;;;;;;7.28;2.75;;;;;;;10.50;70.19;92004.81;5071958;28;20048;-73
2023/04/01 04:43:22;;;;;;;8.85;2.65;;;;;;;10.59;69.36;92013.69;5085627;28;20089;-73
2023/04/01 04:45:49;;;;;;;8.30;3.20;;;;;;;10.59;68.62;92003.41;5091102;28;20116;-73
2023/04/01 04:48:19;;;;;;;8.60;2.55;;;;;;;10.61;67.76;92006.53;5087207;28;20109;-73
2023/04/01 04:50:47;;;;;;;6.47;2.88;;;;;;;10.61;66.73;92000.59;5088941;28;20066;-73
2023/04/01 04:53:15;;;;;;;7.70;2.25;;;;;;;10.54;65.64;91980.22;5092222;28;20097;-73
2023/04/01 04:55:44;;;;;;;10.27;2.63;;;;;;;10.58;65.48;91978.75;5091675;28;20052;-72
2023/04/01 04:58:13;;;;;;;5.20;1.98;;;;;;;10.62;64.78;91977.25;5091802;28;20056;-72
2023/04/01 05:00:40;;;;;;;4.30;1.80;;;;;;;10.63;64.55;91983.16;5078087;28;20048;-72
2023/04/01 05:03:07;;;;;;;7.10;2.20;;;;;;;10.69;64.51;91987.34;5092009;28;20109;-72
2023/04/01 05:05:34;;;;;;;7.25;3.45;;;;;;;10.68;63.70;91981.44;5091774;28;20056;-72
2023/04/01 05:08:01;;;;;;;7.18;3.08;;;;;;;10.69;64.19;91975.28;5087624;28;20056;-72
2023/04/01 05:10:28;;;;;;;8.65;2.92;;;;;;;10.53;64.03;91940.19;5088147;28;20048;-72
2023/04/01 05:12:55;;;;;;;7.10;3.10;;;;;;;10.39;63.81;91920.00;5091918;28;20085;-72
2023/04/01 05:15:23;;;;;;;9.45;3.75;;;;;;;10.74;63.20;91966.84;5089800;28;21060;-72
2023/04/01 05:17:50;;;;;;;14.68;5.60;;;;;;;10.69;63.57;91959.09;5080148;28;20101;-72
2023/04/01 05:20:17;;;;;;;7.88;3.15;;;;;;;10.75;63.12;91960.72;5089511;28;20988;-72
2023/04/01 05:22:44;;;;;;;7.57;2.90;;;;;;;10.76;64.06;91962.25;5080818;28;20090;-72
2023/04/01 05:25:11;;;;;;;8.50;2.90;;;;;;;10.78;63.66;91962.03;5088751;28;20626;-72
2023/04/01 05:27:37;;;;;;;6.93;3.40;;;;;;;10.81;63.69;91969.22;5091419;28;20101;-72
2023/04/01 05:30:06;;;;;;;8.70;3.17;;;;;;;10.88;63.75;91945.94;5091073;28;20102;-72
2023/04/01 05:32:34;;;;;;;9.77;3.00;;;;;;;11.04;63.20;91964.81;5091114;28;20134;-72
2023/04/01 05:35:01;;;;;;;8.52;2.85;;;;;;;11.00;63.33;91951.69;5090698;28;20060;-72
2023/04/01 05:37:27;;;;;;;8.23;3.65;;;;;;;11.23;62.95;91955.75;5091029;28;20044;-72
2023/04/01 05:39:54;;;;;;;11.32;3.58;;;;;;;11.37;62.87;91955.34;5091325;28;20056;-73
2023/04/01 05:42:21;;;;;;;8.13;2.50;;;;;;;11.53;62.81;91945.19;5090831;28;20044;-73
2023/04/01 05:44:47;;;;;;;9.85;2.97;;;;;;;11.76;61.51;91944.81;5091056;28;20052;-73
2023/04/01 05:47:14;;;;;;;13.82;3.63;;;;;;;11.90;61.61;91927.13;5091203;28;20048;-72
2023/04/01 05:49:42;;;;;;;12.98;3.50;;;;;;;12.23;59.88;91942.50;5090276;28;20048;-73
2023/04/01 05:52:09;;;;;;;10.00;3.65;;;;;;;12.50;58.83;91939.00;5090579;28;20048;-73
2023/04/01 05:54:36;;;;;;;7.57;2.85;;;;;;;12.77;58.89;91935.47;5090733;28;20401;-72
2023/04/01 05:57:02;;;;;;;9.82;3.28;;;;;;;13.01;57.98;91922.09;5089508;28;20048;-72
2023/04/01 05:59:30;;;;;;;9.18;2.47;;;;;;;13.33;57.20;91943.56;5090591;28;20044;-73
2023/04/01 06:02:05;;;;;;;6.65;2.38;;;;;;;13.47;56.39;91944.59;5090237;28;20051;-72
2023/04/01 06:04:38;;;;;;;6.13;2.38;;;;;;;13.53;55.68;91947.19;5090447;28;20040;-72
2023/04/01 06:07:12;;;;;;;8.30;2.88;;;;;;;13.49;55.18;91929.66;5090427;28;20048;-72
2023/04/01 06:09:39;;;;;;;8.13;2.63;;;;;;;13.48;54.32;91932.50;5090714;28;20048;-73
2023/04/01 06:12:31;;;;;;;8.32;2.58;;;;;;;13.35;54.55;91931.94;5090465;28;20054;-73
2023/04/01 06:18:19;;;;;;;7.43;2.38;;;;;;;13.30;55.42;91952.56;5081235;28;20044;-72
2023/04/01 06:20:56;;;;;;;7.30;2.25;;;;;;;13.25;55.88;91949.22;5090946;28;20954;-72
2023/04/01 06:23:46;;;;;;;7.07;2.35;;;;;;;13.29;56.10;91948.44;5090184;28;20040;-72
2023/04/01 06:26:21;;;;;;;5.88;2.20;;;;;;;13.12;56.35;91930.63;5090502;28;20462;-72
2023/04/01 06:29:12;;;;;;;6.40;3.33;;;;;;;13.15;57.06;91927.53;5078334;28;20048;-72
2023/04/01 06:32:01;;;;;;;6.85;2.72;;;;;;;13.15;56.97;91913.88;5089557;28;20288;-72
2023/04/01 06:35:09;;;;;;;6.78;2.65;;;;;;;12.96;57.09;91889.38;5090023;28;20048;-73
2023/04/01 06:38:03;;;;;;;13.82;5.35;;;;;;;13.20;57.23;91922.38;5045427;28;20554;-72
2023/04/01 06:40:51;;;;;;;9.00;2.63;;;;;;;12.98;57.23;91896.06;5087246;28;20044;-72
2023/04/01 06:43:25;;;;;;;8.90;2.05;;;;;;;13.09;57.79;91910.53;5089721;28;20101;-72
2023/04/01 06:45:58;;;;;;;6.65;2.50;;;;;;;13.16;57.89;91915.44;5082859;28;20048;-72
2023/04/01 06:48:48;;;;;;;6.63;2.67;;;;;;;13.20;57.64;91921.63;5069379;28;20554;-73
2023/04/01 06:51:27;;;;;;;5.95;1.95;;;;;;;13.12;57.70;91904.06;5069517;28;20040;-72
2023/04/01 06:54:00;;;;;;;6.47;2.55;;;;;;;13.20;57.96;91914.66;5076445;28;20115;-72
2023/04/01 06:56:30;;;;;;;7.88;2.47;;;;;;;13.25;57.89;91908.72;5071974;28;20044;-73
2023/04/01 06:59:00;;;;;;;7.43;2.78;;;;;;;13.36;57.38;91915.44;5088632;28;20208;-72
2023/04/01 07:01:32;;;;;;;8.95;4.60;;;;;;;13.19;56.64;91894.31;5089309;28;20052;-73
2023/04/01 07:04:02;;;;;;;12.73;3.60;;;;;;;13.04;55.66;91884.72;5089292;28;20715;-73
2023/04/01 07:06:33;;;;;;;13.38;4.63;;;;;;;13.09;55.98;91879.59;5089293;28;20066;-73
2023/04/01 07:09:03;;;;;;;6.43;3.58;;;;;;;13.01;55.76;91872.38;5088945;28;20047;-73
2023/04/01 07:11:34;;;;;;;11.98;3.70;;;;;;;13.12;56.85;91875.72;5089427;28;20048;-72
2023/04/01 07:14:03;;;;;;;10.10;3.30;;;;;;;13.18;56.99;91874.69;5089438;28;20090;-72
2023/04/01 07:16:33;;;;;;;10.32;3.72;;;;;;;13.17;57.74;91881.66;5089429;28;20192;-72
2023/04/01 07:19:05;;;;;;;12.82;7.40;;;;;;;13.20;57.79;91881.13;5089471;28;20048;-72
2023/04/01 07:21:37;;;;;;;6.90;3.30;;;;;;;13.13;58.04;91872.09;5089214;28;20044;-73
2023/04/01 07:24:07;;;;;;;10.25;3.85;;;;;;;13.12;57.43;91881.66;5089031;28;20040;-73
2023/04/01 07:26:35;;;;;;;10.90;2.97;;;;;;;13.17;56.50;91884.25;5089179;28;20052;-73
2023/04/01 07:29:02;;;;;;;12.82;4.20;;;;;;;13.25;56.30;91888.09;5089075;28;20040;-72
2023/04/01 07:31:49;;;;;;;12.32;3.80;;;;;;;13.23;55.65;91869.53;5088938;28;20044;-72
2023/04/01 07:34:24;;;;;;;10.88;4.40;;;;;;;13.28;54.96;91879.09;5088881;28;20047;-73
2023/04/01 07:36:59;;;;;;;9.90;3.43;;;;;;;13.36;55.47;91892.22;5088778;28;20244;-73
2023/04/01 07:39:37;;;;;;;11.13;3.35;;;;;;;13.27;54.93;91886.03;5089089;28;20120;-72
2023/04/01 07:42:16;;;;;;;10.73;3.30;;;;;;;13.42;55.28;91874.94;5089296;28;20036;-72
2023/04/01 07:44:54;;;;;;;9.68;4.43;;;;;;;13.23;55.21;91841.16;5088806;28;20130;-72
2023/04/01 07:47:42;;;;;;;8.65;3.80;;;;;;;13.44;55.22;91866.94;5088788;28;20048;-72
2023/04/01 07:50:19;;;;;;;6.95;3.30;;;;;;;13.34;53.51;91850.44;5089062;28;20188;-72
2023/04/01 07:52:56;;;;;;;15.40;6.57;;;;;;;13.41;53.61;91851.97;5088573;28;20056;-72
2023/04/01 07:55:31;;;;;;;6.50;2.50;;;;;;;13.29;53.33;91850.44;5088726;28;20508;-73
2023/04/01 07:58:08;;;;;;;12.65;4.55;;;;;;;13.25;53.98;91849.44;5088686;28;20085;-73
2023/04/01 08:00:43;;;;;;;11.85;6.32;;;;;;;13.30;54.37;91840.91;5085834;28;20048;-73
2023/04/01 08:03:22;;;;;;;10.63;6.30;;;;;;;13.27;54.04;91834.47;5083296;28;20035;-73
2023/04/01 08:05:56;;;;;;;17.33;7.10;;;;;;;13.35;54.81;91841.69;5089066;28;20048;-73
2023/04/01 08:08:37;;;;;;;12.20;6.07;;;;;;;13.40;53.83;91840.91;5088646;28;20040;-73
2023/04/01 08:11:13;;;;;;;13.23;5.00;;;;;;;13.49;54.39;91838.59;5101004;28;20097;-73
2023/04/01 08:13:53;;;;;;;9.93;5.05;;;;;;;13.55;54.12;91834.16;5084605;28;20044;-73
2023/04/01 08:16:28;;;;;;;38.20;18.95;;;;;;;13.64;54.07;91824.88;5087170;28;20508;-72
2023/04/01 08:19:03;;;;;;;10.13;4.47;;;;;;;13.66;53.20;91809.88;5088931;28;20508;-73
2023/04/01 08:21:34;;;;;;;14.45;4.88;;;;;;;13.76;52.93;91811.69;5092314;28;20101;-73
2023/04/01 08:24:11;;;;;;;9.30;3.50;;;;;;;13.89;52.64;91803.38;5092613;28;20051;-73
2023/04/01 08:26:42;;;;;;;8.15;3.80;;;;;;;14.16;52.10;91791.88;5092562;28;20075;-72
2023/04/01 08:29:16;;;;;;;19.83;5.15;;;;;;;14.51;51.23;91763.53;5092410;28;20044;-72
2023/04/01 08:31:49;;;;;;;11.15;3.97;;;;;;;14.65;50.56;91739.66;5092381;28;20052;-73
2023/04/01 08:34:22;;;;;;;16.08;5.93;;;;;;;15.22;49.99;91776.16;5092309;28;20066;-72
2023/04/01 08:36:55;;;;;;;12.60;4.70;;;;;;;15.12;48.87;91711.59;5092305;28;20501;-72
2023/04/01 08:39:29;;;;;;;13.55;4.10;;;;;;;15.82;49.05;91774.22;5091695;28;20056;-73
2023/04/01 08:42:15;;;;;;;14.50;3.78;;;;;;;16.09;47.76;91767.72;5092183;28;20430;-73
2023/04/01 08:45:16;;;;;;;9.57;3.88;;;;;;;16.34;47.32;91776.19;5091917;28;20105;-72
2023/04/01 08:48:18;;;;;;;10.65;3.85;;;;;;;16.32;46.39;91765.34;5092026;28;20109;-73
2023/04/01 08:51:31;;;;;;;12.18;4.00;;;;;;;16.35;46.36;91774.38;5068440;28;20048;-73
2023/04/01 08:54:12;;;;;;;8.50;3.00;;;;;;;16.25;44.35;91760.50;5065795;28;20177;-73
2023/04/01 08:56:43;;;;;;;11.68;4.03;;;;;;;16.06;44.59;91757.16;5077035;28;20041;-73
2023/04/01 08:59:26;;;;;;;5.95;2.15;;;;;;;16.07;45.24;91771.63;5073642;28;20049;-72
2023/04/01 09:02:50;;;;;;;19.88;9.95;;;;;;;16.14;45.17;91778.00;5088860;28;20044;-72
2023/04/01 09:05:36;;;;;;;7.43;3.20;;;;;;;16.13;44.61;91771.28;5028716;28;20045;-73
2023/04/01 09:08:13;;;;;;;8.02;3.42;;;;;;;16.22;44.87;91775.84;5028940;28;20072;-72
2023/04/01 09:11:00;;;;;;;8.98;3.22;;;;;;;16.14;44.11;91770.25;5079641;28;20036;-72
2023/04/01 09:13:47;;;;;;;11.70;5.57;;;;;;;15.86;44.50;91751.13;5091095;28;20040;-73
2023/04/01 09:16:44;;;;;;;7.07;2.90;;;;;;;15.88;44.84;91769.78;5091267;28;20125;-73
2023/04/01 09:19:22;;;;;;;6.70;2.90;;;;;;;15.73;44.86;91765.53;5091024;28;20129;-73
2023/04/01 09:22:16;;;;;;;13.82;4.15;;;;;;;15.62;45.46;91765.66;5091004;28;20076;-73
2023/04/01 09:25:11;;;;;;;14.23;5.18;;;;;;;15.55;46.36;91760.03;5090700;28;20556;-73
2023/04/01 09:27:45;;;;;;;22.15;11.73;;;;;;;15.45;46.83;91757.53;5091018;28;20565;-73
2023/04/01 09:30:49;;;;;;;11.45;6.13;;;;;;;15.35;47.25;91750.66;5090893;28;20056;-73
2023/04/01 09:33:56;;;;;;;13.45;4.30;;;;;;;15.04;47.55;91715.53;5090767;28;20044;-73
2023/04/01 09:36:39;;;;;;;13.93;6.13;;;;;;;15.37;48.40;91740.84;5090558;28;20051;-73
2023/04/01 09:39:36;;;;;;;12.73;4.90;;;;;;;15.39;48.55;91743.91;5090647;28;20052;-73
2023/04/01 09:42:24;;;;;;;16.95;5.93;;;;;;;15.39;48.93;91743.13;5081335;28;20040;-73
2023/04/01 09:44:58;;;;;;;10.00;3.83;;;;;;;15.34;49.79;91736.19;5075227;28;20079;-72
2023/04/01 09:47:43;;;;;;;20.48;9.45;;;;;;;15.31;50.43;91731.56;5090628;28;20051;-73
2023/04/01 09:50:28;;;;;;;12.63;5.07;;;;;;;15.25;51.25;91725.69;5090931;28;20044;-73
2023/04/01 09:53:08;;;;;;;9.48;2.90;;;;;;;15.20;51.82;91708.41;5090299;28;20085;-72
2023/04/01 09:56:10;;;;;;;11.27;3.58;;;;;;;15.26;52.39;91713.50;5090820;28;20048;-72
2023/04/01 09:59:23;;;;;;;9.02;3.63;;;;;;;15.19;51.86;91699.09;5090624;28;20171;-72
2023/04/01 10:02:20;;;;;;;13.38;5.35;;;;;;;15.25;52.37;91696.44;5091106;28;20048;-72
2023/04/01 10:05:29;;;;;;;11.73;4.32;;;;;;;15.38;51.47;91682.09;5090717;28;20044;-72
2023/04/01 10:08:18;;;;;;;13.77;6.68;;;;;;;15.54;50.88;91698.19;5018561;28;20040;-72
2023/04/01 10:11:16;;;;;;;11.65;5.97;;;;;;;15.54;50.24;91693.78;5087498;28;20044;-72
2023/04/01 10:14:23;;;;;;;9.85;4.13;;;;;;;15.58;49.72;91687.03;5069621;28;20093;-73
2023/04/01 10:17:11;;;;;;;17.13;7.97;;;;;;;15.67;50.18;91674.22;5066408;28;20044;-72
2023/04/01 10:20:03;;;;;;;22.75;11.90;;;;;;;15.71;49.65;91662.28;5089269;28;20123;-72
2023/04/01 10:23:00;;;;;;;23.67;11.07;;;;;;;15.91;49.19;91668.22;5088612;28;20126;-73
2023/04/01 10:25:48;;;;;;;16.63;7.17;;;;;;;15.93;48.67;91653.22;5070113;28;20048;-72
2023/04/01 10:28:48;;;;;;;13.13;6.07;;;;;;;15.85;48.10;91638.25;5076290;28;20088;-72
2023/04/01 10:31:54;;;;;;;9.48;2.63;;;;;;;15.80;47.14;91638.34;5080491;28;20048;-72
2023/04/01 10:35:01;;;;;;;22.70;7.78;;;;;;;15.88;47.73;91651.41;5007408;28;20051;-72
2023/04/01 10:37:53;;;;;;;27.38;12.90;;;;;;;15.82;47.87;91620.69;5083773;28;20047;-72
2023/04/01 10:40:38;;;;;;;27.20;11.30;;;;;;;15.68;47.33;91613.66;5090182;28;20112;-72
2023/04/01 10:43:38;;;;;;;20.00;8.13;;;;;;;15.81;47.25;91630.28;5089892;28;20475;-72
2023/04/01 10:46:46;;;;;;;12.77;5.95;;;;;;;15.75;47.16;91624.41;5087784;28;20059;-72
2023/04/01 10:49:48;;;;;;;53.72;24.10;;;;;;;15.88;48.09;91620.34;5080934;28;20051;-72
2023/04/01 10:52:48;;;;;;;17.50;5.53;;;;;;;15.93;47.97;91609.19;5089884;28;20048;-72
2023/04/01 10:55:57;;;;;;;21.55;8.10;;;;;;;16.01;48.19;91602.56;5083812;28;20052;-72
2023/04/01 10:58:51;;;;;;;8.60;3.90;;;;;;;16.04;47.45;91591.66;5061323;28;20044;-72
2023/04/01 11:02:01;;;;;;;14.25;6.13;;;;;;;16.11;47.78;91602.41;5068627;28;20059;-72
2023/04/01 11:05:06;;;;;;;9.85;2.97;;;;;;;16.07;47.65;91608.47;5068795;28;20045;-72
2023/04/01 11:07:55;;;;;;;6.05;2.92;;;;;;;15.87;47.62;91597.31;5040450;28;20048;-72
2023/04/01 11:10:57;;;;;;;9.88;3.47;;;;;;;15.81;47.83;91621.75;5070512;28;20631;-72
2023/04/01 11:13:59;;;;;;;5.90;2.95;;;;;;;15.64;50.01;91630.78;5088769;28;20044;-72
2023/04/01 11:16:47;;;;;;;20.67;9.90;;;;;;;15.49;54.40;91635.13;5072123;28;20044;-72
2023/04/01 11:19:46;;;;;;;14.93;8.20;;;;;;;15.40;53.45;91656.69;5069012;28;20044;-71
2023/04/01 11:22:34;;;;;;;46.05;21.13;;;;;;;15.32;54.34;91674.38;5068952;28;20558;-71
2023/04/01 11:25:15;;;;;;;33.88;15.35;;;;;;;15.23;54.33;91689.00;5069033;28;20455;-71
2023/04/01 11:28:10;;;;;;;27.00;14.13;;;;;;;15.04;59.48;91717.38;5069070;28;20131;-71
2023/04/01 11:31:00;;;;;;;13.25;4.50;;;;;;;14.84;67.80;91760.47;5082205;28;20090;-72
2023/04/01 11:33:35;;;;;;;12.65;3.97;;;;;;;14.27;78.69;91777.09;5068299;28;20048;-73
2023/04/01 11:36:30;;;;;;;11.25;3.53;;;;;;;12.86;85.60;91778.56;5069509;28;20429;-73
2023/04/01 11:39:09;;;;;;;7.40;2.55;;;;;;;11.94;100.00;91829.63;5088544;28;20056;-73
2023/04/01 11:41:42;;;;;;;8.23;2.70;;;;;;;11.96;100.00;91843.03;5089065;28;20083;-73
2023/04/01 11:44:18;;;;;;;8.38;3.97;;;;;;;11.75;100.00;91842.94;5089205;28;20062;-73
2023/04/01 11:46:55;;;;;;;;;;;;;;;11.83;100.00;91848.63;5089478;28;20048;-73
2023/04/01 11:49:35;;;;;;;18.00;5.50;;;;;;;11.73;100.00;91827.00;5088497;28;19919;-74
2023/04/01 11:52:23;;;;;;;9.85;4.57;;;;;;;11.66;100.00;91838.53;5075476;28;20519;-74
2023/04/01 11:55:07;;;;;;;7.68;4.00;;;;;;;11.49;100.00;91850.50;5092500;28;20069;-74
2023/04/01 11:57:49;;;;;;;9.68;4.00;;;;;;;11.47;100.00;91851.78;5093324;28;20089;-73
2023/04/01 12:00:37;;;;;;;14.25;5.45;;;;;;;11.66;100.00;91859.84;5092820;28;20089;-73
2023/04/01 12:03:19;;;;;;;10.15;4.85;;;;;;;11.75;100.00;91848.09;5048265;28;20496;-73
2023/04/01 12:05:53;;;;;;;16.45;7.00;;;;;;;11.90;100.00;91857.66;5092781;28;20571;-73
2023/04/01 12:08:32;;;;;;;20.42;8.77;;;;;;;12.02;100.00;91844.59;5080162;28;20048;-73
2023/04/01 12:11:08;;;;;;;16.63;7.05;;;;;;;12.05;100.00;91833.06;5092245;28;20093;-73
2023/04/01 12:13:44;;;;;;;15.38;6.28;;;;;;;12.23;100.00;91843.91;5092656;28;20500;-72
2023/04/01 12:16:34;;;;;;;17.42;6.75;;;;;;;12.39;100.00;91855.81;5092994;28;20059;-72